sensor_id;sensor_type;location;lat;lon;timestamp;temperature;humidity
4594;DHT22;2309;51.674;8.368;2023-12-22T06:49:44;5.50;1.00
4594;DHT22;2309;51.674;8.368;2023-12-22T06:52:11;5.50;1.00
4594;DHT22;2309;51.674;8.368;2023-12-22T06:54:38;5.60;1.00
4594;DHT22;2309;51.674;8.368;2023-12-22T06:57:07;5.60;1.00
4594;DHT22;2309;51.674;8.368;2023-12-22T06:59:33;5.60;1.00
4594;DHT22;2309;51.674;8.368;2023-12-22T07:02:00;5.60;1.00
4594;DHT22;2309;51.674;8.368;2023-12-22T07:06:55;5.60;99.90
4594;DHT22;2309;51.674;8.368;2023-12-22T07:11:54;5.60;99.90
4594;DHT22;2309;51.674;8.368;2023-12-22T07:14:24;5.70;99.90
4594;DHT22;2309;51.674;8.368;2023-12-22T07:16:50;5.70;99.90
4594;DHT22;2309;51.674;8.368;2023-12-22T07:19:17;5.70;99.90
4594;DHT22;2309;51.674;8.368;2023-12-22T07:21:44;5.60;99.90
4594;DHT22;2309;51.674;8.368;2023-12-22T07:24:10;5.70;99.90
4594;DHT22;2309;51.674;8.368;2023-12-22T07:26:38;5.80;99.90
4594;DHT22;2309;51.674;8.368;2023-12-22T07:29:05;5.70;99.90
4594;DHT22;2309;51.674;8.368;2023-12-22T07:31:32;5.70;51.40
4594;DHT22;2309;51.674;8.368;2023-12-22T07:33:59;5.80;10.90
4594;DHT22;2309;51.674;8.368;2023-12-22T07:36:25;5.80;1.00
4594;DHT22;2309;51.674;8.368;2023-12-22T07:38:54;5.90;1.00
4594;DHT22;2309;51.674;8.368;2023-12-22T07:41:22;5.90;1.00
4594;DHT22;2309;51.674;8.368;2023-12-22T07:43:49;5.90;1.00
4594;DHT22;2309;51.674;8.368;2023-12-22T07:46:17;5.90;1.00
4594;DHT22;2309;51.674;8.368;2023-12-22T07:48:44;5.90;1.00
4594;DHT22;2309;51.674;8.368;2023-12-22T07:51:11;5.90;1.00
4594;DHT22;2309;51.674;8.368;2023-12-22T07:53:38;5.90;38.00
4594;DHT22;2309;51.674;8.368;2023-12-22T07:56:05;5.90;74.10
4594;DHT22;2309;51.674;8.368;2023-12-22T07:58:32;6.00;96.60
4594;DHT22;2309;51.674;8.368;2023-12-22T08:00:59;6.00;96.60
4594;DHT22;2309;51.674;8.368;2023-12-22T08:03:26;6.00;99.90
4594;DHT22;2309;51.674;8.368;2023-12-22T08:05:52;6.00;99.90
4594;DHT22;2309;51.674;8.368;2023-12-22T08:08:19;6.10;99.90
4594;DHT22;2309;51.674;8.368;2023-12-22T08:10:46;6.00;99.90
4594;DHT22;2309;51.674;8.368;2023-12-22T08:13:14;6.00;1.00
4594;DHT22;2309;51.674;8.368;2023-12-22T08:15:41;5.90;99.90
4594;DHT22;2309;51.674;8.368;2023-12-22T08:18:08;5.90;99.90
4594;DHT22;2309;51.674;8.368;2023-12-22T08:20:35;5.70;99.90
4594;DHT22;2309;51.674;8.368;2023-12-22T08:23:01;5.50;99.90
4594;DHT22;2309;51.674;8.368;2023-12-22T08:25:30;5.40;1.00
4594;DHT22;2309;51.674;8.368;2023-12-22T08:27:57;5.10;33.70
4594;DHT22;2309;51.674;8.368;2023-12-22T08:30:25;5.10;1.00
4594;DHT22;2309;51.674;8.368;2023-12-22T08:32:54;5.10;1.00
4594;DHT22;2309;51.674;8.368;2023-12-22T08:35:23;4.90;99.90
4594;DHT22;2309;51.674;8.368;2023-12-22T08:37:52;4.70;1.00
4594;DHT22;2309;51.674;8.368;2023-12-22T08:40:19;4.80;91.10
4594;DHT22;2309;51.674;8.368;2023-12-22T08:42:47;4.50;99.90
4594;DHT22;2309;51.674;8.368;2023-12-22T08:45:14;4.50;99.90
4594;DHT22;2309;51.674;8.368;2023-12-22T08:47:41;4.70;99.90
4594;DHT22;2309;51.674;8.368;2023-12-22T08:50:08;4.50;1.00
4594;DHT22;2309;51.674;8.368;2023-12-22T08:52:35;4.60;76.70
4594;DHT22;2309;51.674;8.368;2023-12-22T08:55:02;4.00;99.90
4594;DHT22;2309;51.674;8.368;2023-12-22T08:57:31;4.70;99.90
4594;DHT22;2309;51.674;8.368;2023-12-22T09:00:00;4.60;99.90
4594;DHT22;2309;51.674;8.368;2023-12-22T09:02:26;4.70;99.90
4594;DHT22;2309;51.674;8.368;2023-12-22T09:04:59;4.90;99.90
4594;DHT22;2309;51.674;8.368;2023-12-22T09:07:26;4.90;99.90
4594;DHT22;2309;51.674;8.368;2023-12-22T09:09:53;5.00;99.90
4594;DHT22;2309;51.674;8.368;2023-12-22T09:12:23;5.00;99.90
4594;DHT22;2309;51.674;8.368;2023-12-22T09:14:50;5.10;87.00
4594;DHT22;2309;51.674;8.368;2023-12-22T09:17:17;5.10;81.70
4594;DHT22;2309;51.674;8.368;2023-12-22T09:19:44;5.10;92.70
4594;DHT22;2309;51.674;8.368;2023-12-22T09:22:11;5.10;47.70
4594;DHT22;2309;51.674;8.368;2023-12-22T09:24:39;5.10;47.20
4594;DHT22;2309;51.674;8.368;2023-12-22T09:27:06;5.20;5.90
4594;DHT22;2309;51.674;8.368;2023-12-22T09:29:33;5.20;1.00
4594;DHT22;2309;51.674;8.368;2023-12-22T09:32:03;5.20;1.00
4594;DHT22;2309;51.674;8.368;2023-12-22T09:34:32;5.20;1.00
4594;DHT22;2309;51.674;8.368;2023-12-22T09:36:59;5.50;1.00
4594;DHT22;2309;51.674;8.368;2023-12-22T09:39:26;5.30;1.00
4594;DHT22;2309;51.674;8.368;2023-12-22T09:41:54;5.40;99.90
4594;DHT22;2309;51.674;8.368;2023-12-22T09:44:21;5.80;99.90
4594;DHT22;2309;51.674;8.368;2023-12-22T09:46:49;5.40;3.30
4594;DHT22;2309;51.674;8.368;2023-12-22T09:49:18;5.40;99.90
4594;DHT22;2309;51.674;8.368;2023-12-22T09:51:46;5.40;99.90
4594;DHT22;2309;51.674;8.368;2023-12-22T09:54:13;5.30;99.90
4594;DHT22;2309;51.674;8.368;2023-12-22T09:56:42;5.40;1.00
4594;DHT22;2309;51.674;8.368;2023-12-22T09:59:10;5.80;1.00
4594;DHT22;2309;51.674;8.368;2023-12-22T10:01:42;5.40;1.00
4594;DHT22;2309;51.674;8.368;2023-12-22T10:04:07;5.60;1.00
4594;DHT22;2309;51.674;8.368;2023-12-22T10:06:34;5.10;1.00
4594;DHT22;2309;51.674;8.368;2023-12-22T10:09:01;5.60;99.90
4594;DHT22;2309;51.674;8.368;2023-12-22T10:11:31;5.80;99.90
4594;DHT22;2309;51.674;8.368;2023-12-22T10:13:59;6.00;99.90
4594;DHT22;2309;51.674;8.368;2023-12-22T10:16:26;6.10;31.00
4594;DHT22;2309;51.674;8.368;2023-12-22T10:18:53;6.10;1.00
4594;DHT22;2309;51.674;8.368;2023-12-22T10:21:20;6.10;1.00
4594;DHT22;2309;51.674;8.368;2023-12-22T10:23:47;6.10;1.00
4594;DHT22;2309;51.674;8.368;2023-12-22T10:26:14;8.70;1.00
4594;DHT22;2309;51.674;8.368;2023-12-22T10:28:42;7.60;1.00
4594;DHT22;2309;51.674;8.368;2023-12-22T10:31:16;5.90;1.00
4594;DHT22;2309;51.674;8.368;2023-12-22T10:33:44;6.00;99.90
4594;DHT22;2309;51.674;8.368;2023-12-22T10:36:10;5.90;1.00
4594;DHT22;2309;51.674;8.368;2023-12-22T10:38:37;5.90;1.00
4594;DHT22;2309;51.674;8.368;2023-12-22T10:41:06;6.00;22.50
4594;DHT22;2309;51.674;8.368;2023-12-22T10:43:37;5.90;99.90
4594;DHT22;2309;51.674;8.368;2023-12-22T10:46:02;5.90;99.90
4594;DHT22;2309;51.674;8.368;2023-12-22T10:48:31;5.90;99.90
4594;DHT22;2309;51.674;8.368;2023-12-22T10:51:08;5.80;99.90
4594;DHT22;2309;51.674;8.368;2023-12-22T10:53:36;5.80;99.90
4594;DHT22;2309;51.674;8.368;2023-12-22T10:56:04;5.80;1.00
4594;DHT22;2309;51.674;8.368;2023-12-22T10:58:47;5.70;99.90
4594;DHT22;2309;51.674;8.368;2023-12-22T11:01:17;5.70;99.90
4594;DHT22;2309;51.674;8.368;2023-12-22T11:03:46;5.70;1.00
4594;DHT22;2309;51.674;8.368;2023-12-22T11:06:16;5.60;36.20
4594;DHT22;2309;51.674;8.368;2023-12-22T11:08:43;5.60;1.00
4594;DHT22;2309;51.674;8.368;2023-12-22T11:11:15;5.60;99.90
4594;DHT22;2309;51.674;8.368;2023-12-22T11:13:38;5.70;42.20
4594;DHT22;2309;51.674;8.368;2023-12-22T11:16:05;5.70;99.90
4594;DHT22;2309;51.674;8.368;2023-12-22T11:18:32;5.70;99.90
4594;DHT22;2309;51.674;8.368;2023-12-22T11:21:00;5.90;25.60
4594;DHT22;2309;51.674;8.368;2023-12-22T11:23:28;5.90;99.90
4594;DHT22;2309;51.674;8.368;2023-12-22T11:25:56;6.00;99.90
4594;DHT22;2309;51.674;8.368;2023-12-22T11:28:30;6.10;99.90
4594;DHT22;2309;51.674;8.368;2023-12-22T11:31:00;6.30;99.90
4594;DHT22;2309;51.674;8.368;2023-12-22T11:33:30;6.00;99.90
4594;DHT22;2309;51.674;8.368;2023-12-22T11:35:57;5.80;99.90
4594;DHT22;2309;51.674;8.368;2023-12-22T11:38:28;6.00;99.90
4594;DHT22;2309;51.674;8.368;2023-12-22T11:40:58;5.90;99.90
4594;DHT22;2309;51.674;8.368;2023-12-22T11:43:31;5.80;1.00
4594;DHT22;2309;51.674;8.368;2023-12-22T11:46:02;5.80;34.00
4594;DHT22;2309;51.674;8.368;2023-12-22T11:48:31;5.70;99.90
4594;DHT22;2309;51.674;8.368;2023-12-22T11:51:12;5.70;99.90
4594;DHT22;2309;51.674;8.368;2023-12-22T11:53:39;5.60;99.90
4594;DHT22;2309;51.674;8.368;2023-12-22T11:56:10;5.70;99.90
4594;DHT22;2309;51.674;8.368;2023-12-22T11:58:40;5.60;99.90
4594;DHT22;2309;51.674;8.368;2023-12-22T12:01:12;5.60;99.90
4594;DHT22;2309;51.674;8.368;2023-12-22T12:03:41;5.70;99.90
4594;DHT22;2309;51.674;8.368;2023-12-22T12:08:42;5.80;1.00
4594;DHT22;2309;51.674;8.368;2023-12-22T12:11:13;5.80;1.00
4594;DHT22;2309;51.674;8.368;2023-12-22T12:13:42;5.80;99.90
4594;DHT22;2309;51.674;8.368;2023-12-22T12:16:15;5.80;99.90
4594;DHT22;2309;51.674;8.368;2023-12-22T12:18:41;5.90;99.90
4594;DHT22;2309;51.674;8.368;2023-12-22T12:21:08;5.90;99.90
4594;DHT22;2309;51.674;8.368;2023-12-22T12:23:37;5.90;22.20
4594;DHT22;2309;51.674;8.368;2023-12-22T12:26:06;5.80;99.90
4594;DHT22;2309;51.674;8.368;2023-12-22T12:28:33;5.90;99.90
4594;DHT22;2309;51.674;8.368;2023-12-22T12:33:49;5.90;79.50
4594;DHT22;2309;51.674;8.368;2023-12-22T12:36:16;6.00;99.90
4594;DHT22;2309;51.674;8.368;2023-12-22T12:39:19;5.90;1.00
4594;DHT22;2309;51.674;8.368;2023-12-22T12:41:11;5.90;88.90
4594;DHT22;2309;51.674;8.368;2023-12-22T12:43:40;4.40;54.80
4594;DHT22;2309;51.674;8.368;2023-12-22T12:46:08;6.00;1.00
4594;DHT22;2309;51.674;8.368;2023-12-22T12:48:35;6.00;1.00
4594;DHT22;2309;51.674;8.368;2023-12-22T12:51:03;5.90;1.00
4594;DHT22;2309;51.674;8.368;2023-12-22T12:53:31;6.10;99.90
4594;DHT22;2309;51.674;8.368;2023-12-22T12:55:59;6.10;99.90
4594;DHT22;2309;51.674;8.368;2023-12-22T13:01:03;6.00;99.90
4594;DHT22;2309;51.674;8.368;2023-12-22T13:04:06;6.00;99.90
4594;DHT22;2309;51.674;8.368;2023-12-22T13:08:46;6.10;1.00
4594;DHT22;2309;51.674;8.368;2023-12-22T13:11:13;6.00;1.00
4594;DHT22;2309;51.674;8.368;2023-12-22T13:13:43;6.10;14.50
4594;DHT22;2309;51.674;8.368;2023-12-22T13:16:17;6.10;99.90
4594;DHT22;2309;51.674;8.368;2023-12-22T13:21:28;6.20;97.40
